sensor_id;sensor_type;location;lat;lon;timestamp;P1;P2;P0
74430;PMS7003;62863;52.062;23.764;2023-10-13T00:01:00;4.4;3.6;2.8
74430;PMS7003;62863;52.062;23.764;2023-10-13T00:06:16;4.4;3.4;2.2
74430;PMS7003;62863;52.062;23.764;2023-10-13T00:11:11;5.4;4.4;3.2
74430;PMS7003;62863;52.062;23.764;2023-10-13T00:15:42;7.2;4.6;3
74430;PMS7003;62863;52.062;23.764;2023-10-13T00:20:36;6.4;5.6;3.6
74430;PMS7003;62863;52.062;23.764;2023-10-13T00:25:54;6.2;5.4;3.6
74430;PMS7003;62863;52.062;23.764;2023-10-13T00:31:14;7.8;6.2;4
74430;PMS7003;62863;52.062;23.764;2023-10-13T00:35:38;7;5.6;4.2
74430;PMS7003;62863;52.062;23.764;2023-10-13T00:40:52;11.4;9.4;6
74430;PMS7003;62863;52.062;23.764;2023-10-13T00:46:08;12.4;9.4;6.6
74430;PMS7003;62863;52.062;23.764;2023-10-13T00:51:00;14.5;11.8;7.5
74430;PMS7003;62863;52.062;23.764;2023-10-13T00:55:58;11.2;8.2;5.8
74430;PMS7003;62863;52.062;23.764;2023-10-13T01:00:42;7.4;5.8;3.4
74430;PMS7003;62863;52.062;23.764;2023-10-13T01:05:40;5;3.8;3
74430;PMS7003;62863;52.062;23.764;2023-10-13T01:10:36;5.4;3.8;2.4
74430;PMS7003;62863;52.062;23.764;2023-10-13T01:15:54;5;4.8;3.4
74430;PMS7003;62863;52.062;23.764;2023-10-13T01:20:56;7.8;4.8;3.2
74430;PMS7003;62863;52.062;23.764;2023-10-13T01:26:08;6.4;4.2;3.2
74430;PMS7003;62863;52.062;23.764;2023-10-13T01:30:52;5;3.8;3
74430;PMS7003;62863;52.062;23.764;2023-10-13T01:36:06;4.4;3.8;3
74430;PMS7003;62863;52.062;23.764;2023-10-13T01:40:44;5.8;4.4;3.2
74430;PMS7003;62863;52.062;23.764;2023-10-13T01:46:12;7.6;6.8;5
74430;PMS7003;62863;52.062;23.764;2023-10-13T01:50:36;9.3;7.5;4.8
74430;PMS7003;62863;52.062;23.764;2023-10-13T01:55:37;7.6;6.4;4.2
74430;PMS7003;62863;52.062;23.764;2023-10-13T02:00:42;6.2;4.8;4.2
74430;PMS7003;62863;52.062;23.764;2023-10-13T02:05:36;4.8;3.8;2.8
74430;PMS7003;62863;52.062;23.764;2023-10-13T02:11:14;7;5;3.6
74430;PMS7003;62863;52.062;23.764;2023-10-13T02:15:52;3.6;2.6;2.4
74430;PMS7003;62863;52.062;23.764;2023-10-13T02:20:52;6.4;5.8;3.8
74430;PMS7003;62863;52.062;23.764;2023-10-13T02:25:46;6.8;4.8;3
74430;PMS7003;62863;52.062;23.764;2023-10-13T02:31:14;5;3.2;2.8
74430;PMS7003;62863;52.062;23.764;2023-10-13T02:35:40;4.8;4;2.8
74430;PMS7003;62863;52.062;23.764;2023-10-13T02:40:52;6.8;6.2;4.6
74430;PMS7003;62863;52.062;23.764;2023-10-13T02:45:51;5.6;5.2;3.4
74430;PMS7003;62863;52.062;23.764;2023-10-13T02:51:00;5;3.3;2.3
74430;PMS7003;62863;52.062;23.764;2023-10-13T02:56:02;5.6;3.6;2.8
74430;PMS7003;62863;52.062;23.764;2023-10-13T03:01:10;5.4;4;3.4
74430;PMS7003;62863;52.062;23.764;2023-10-13T03:05:42;4.8;3;2.4
74430;PMS7003;62863;52.062;23.764;2023-10-13T03:10:36;5;3.8;2.8
74430;PMS7003;62863;52.062;23.764;2023-10-13T03:15:36;6.2;5.6;3.4
74430;PMS7003;62863;52.062;23.764;2023-10-13T03:21:14;6.2;5.2;3.4
74430;PMS7003;62863;52.062;23.764;2023-10-13T03:25:36;4.4;3.8;3.4
74430;PMS7003;62863;52.062;23.764;2023-10-13T03:30:46;5.8;4;3
74430;PMS7003;62863;52.062;23.764;2023-10-13T03:35:42;5;4.8;3.2
74430;PMS7003;62863;52.062;23.764;2023-10-13T03:40:49;5.8;5;3.6
74430;PMS7003;62863;52.062;23.764;2023-10-13T03:46:15;6.4;6.2;3.6
74430;PMS7003;62863;52.062;23.764;2023-10-13T03:51:00;5.8;5;4.4
74430;PMS7003;62863;52.062;23.764;2023-10-13T03:56:00;6.5;6.3;4
74430;PMS7003;62863;52.062;23.764;2023-10-13T04:00:52;6;5.2;3.4
74430;PMS7003;62863;52.062;23.764;2023-10-13T04:05:46;7.8;6.8;5.4
74430;PMS7003;62863;52.062;23.764;2023-10-13T04:11:12;11.4;10.6;7.8
74430;PMS7003;62863;52.062;23.764;2023-10-13T04:15:42;7.6;6.2;4.8
74430;PMS7003;62863;52.062;23.764;2023-10-13T04:20:42;8.2;6;4.6
74430;PMS7003;62863;52.062;23.764;2023-10-13T04:25:42;7.8;7;5.2
74430;PMS7003;62863;52.062;23.764;2023-10-13T04:31:00;7.6;6.4;5
74430;PMS7003;62863;52.062;23.764;2023-10-13T04:36:12;7;5.6;3.6
74430;PMS7003;62863;52.062;23.764;2023-10-13T04:40:48;7.8;5.6;3.6
74430;PMS7003;62863;52.062;23.764;2023-10-13T04:45:58;7.6;5.6;3.8
74430;PMS7003;62863;52.062;23.764;2023-10-13T04:50:44;6.2;5.8;4.8
74430;PMS7003;62863;52.062;23.764;2023-10-13T04:55:36;9.8;9.3;6.8
74430;PMS7003;62863;52.062;23.764;2023-10-13T05:01:12;15.6;13.2;8.6
74430;PMS7003;62863;52.062;23.764;2023-10-13T05:05:42;11.2;9.8;7.2
74430;PMS7003;62863;52.062;23.764;2023-10-13T05:10:46;17;11.8;7.8
74430;PMS7003;62863;52.062;23.764;2023-10-13T05:15:42;15.6;12.4;8.6
74430;PMS7003;62863;52.062;23.764;2023-10-13T05:20:54;14;10.6;7.2
74430;PMS7003;62863;52.062;23.764;2023-10-13T05:25:59;9;8;6
74430;PMS7003;62863;52.062;23.764;2023-10-13T05:31:00;8.2;7.2;4.2
74430;PMS7003;62863;52.062;23.764;2023-10-13T05:35:58;11;8.8;7.4
74430;PMS7003;62863;52.062;23.764;2023-10-13T05:40:51;17.8;15.6;11.6
74430;PMS7003;62863;52.062;23.764;2023-10-13T05:45:46;20.2;17.2;13.4
74430;PMS7003;62863;52.062;23.764;2023-10-13T05:51:12;17.6;16.6;12.2
74430;PMS7003;62863;52.062;23.764;2023-10-13T05:55:46;16.8;13;9.5
74430;PMS7003;62863;52.062;23.764;2023-10-13T06:00:38;10.4;10;8
74430;PMS7003;62863;52.062;23.764;2023-10-13T06:05:36;10.4;10.4;8.4
74430;PMS7003;62863;52.062;23.764;2023-10-13T06:11:00;13.6;11.6;9.6
74430;PMS7003;62863;52.062;23.764;2023-10-13T06:16:10;18;15;10.8
74430;PMS7003;62863;52.062;23.764;2023-10-13T06:21:02;22.4;19;12
74430;PMS7003;62863;52.062;23.764;2023-10-13T06:26:12;24;22;14.4
74430;PMS7003;62863;52.062;23.764;2023-10-13T06:30:56;15;14;10.4
74430;PMS7003;62863;52.062;23.764;2023-10-13T06:35:49;14;13;9.4
74430;PMS7003;62863;52.062;23.764;2023-10-13T06:41:00;16;13.4;10
74430;PMS7003;62863;52.062;23.764;2023-10-13T06:45:42;15.6;14.2;10.6
74430;PMS7003;62863;52.062;23.764;2023-10-13T06:50:52;10.4;9.8;6.6
74430;PMS7003;62863;52.062;23.764;2023-10-13T06:55:54;16.8;15.5;10.3
74430;PMS7003;62863;52.062;23.764;2023-10-13T07:01:00;26.6;23;15.8
74430;PMS7003;62863;52.062;23.764;2023-10-13T07:06:14;11.4;9.8;7.6
74430;PMS7003;62863;52.062;23.764;2023-10-13T07:10:58;10.2;9.4;7.4
74430;PMS7003;62863;52.062;23.764;2023-10-13T07:16:00;9;8.2;6.2
74430;PMS7003;62863;52.062;23.764;2023-10-13T07:20:36;9.4;8.4;5.8
74430;PMS7003;62863;52.062;23.764;2023-10-13T07:25:52;9.6;8.4;6.2
74430;PMS7003;62863;52.062;23.764;2023-10-13T07:31:14;8.8;8.6;6.8
74430;PMS7003;62863;52.062;23.764;2023-10-13T07:35:36;15.2;13;8.8
74430;PMS7003;62863;52.062;23.764;2023-10-13T07:40:36;18.2;15.6;10.6
74430;PMS7003;62863;52.062;23.764;2023-10-13T07:45:36;15;13.8;10
74430;PMS7003;62863;52.062;23.764;2023-10-13T07:51:03;16.4;15;11.8
74430;PMS7003;62863;52.062;23.764;2023-10-13T07:56:12;14.8;12.5;9.3
74430;PMS7003;62863;52.062;23.764;2023-10-13T08:00:42;9;8.6;5.8
74430;PMS7003;62863;52.062;23.764;2023-10-13T08:05:58;7.8;7.4;5
74430;PMS7003;62863;52.062;23.764;2023-10-13T08:10:50;10.6;9;6.2
74430;PMS7003;62863;52.062;23.764;2023-10-13T08:15:48;10.6;8.8;6
74430;PMS7003;62863;52.062;23.764;2023-10-13T08:21:14;6;5.2;4
74430;PMS7003;62863;52.062;23.764;2023-10-13T08:25:36;7;6;4.8
74430;PMS7003;62863;52.062;23.764;2023-10-13T08:30:42;6.8;5.2;3.8
74430;PMS7003;62863;52.062;23.764;2023-10-13T08:35:42;12;10.4;7
74430;PMS7003;62863;52.062;23.764;2023-10-13T08:40:57;15.2;12.2;8.8
74430;PMS7003;62863;52.062;23.764;2023-10-13T08:46:14;14.6;13.6;9.4
74430;PMS7003;62863;52.062;23.764;2023-10-13T08:50:52;6;4.8;3
74430;PMS7003;62863;52.062;23.764;2023-10-13T08:56:01;10.6;8.6;6.4
74430;PMS7003;62863;52.062;23.764;2023-10-13T09:00:52;7.3;5.8;4.5
74430;PMS7003;62863;52.062;23.764;2023-10-13T09:05:48;7.2;5.2;4.2
74430;PMS7003;62863;52.062;23.764;2023-10-13T09:11:14;4;2.8;2
74430;PMS7003;62863;52.062;23.764;2023-10-13T09:15:36;6.8;4.4;3.2
74430;PMS7003;62863;52.062;23.764;2023-10-13T09:20:50;2;2;2
74430;PMS7003;62863;52.062;23.764;2023-10-13T09:25:48;17.4;14;8.2
74430;PMS7003;62863;52.062;23.764;2023-10-13T09:31:02;17.4;12.6;8.2
74430;PMS7003;62863;52.062;23.764;2023-10-13T09:36:14;9.8;7.4;4.6
74430;PMS7003;62863;52.062;23.764;2023-10-13T09:40:52;21.2;17;10.6
74430;PMS7003;62863;52.062;23.764;2023-10-13T09:46:00;6.8;6.2;4.2
74430;PMS7003;62863;52.062;23.764;2023-10-13T09:50:52;59;43;23.8
74430;PMS7003;62863;52.062;23.764;2023-10-13T09:55:37;18.4;14.4;9.2
74430;PMS7003;62863;52.062;23.764;2023-10-13T10:01:15;16.8;15;10.5
74430;PMS7003;62863;52.062;23.764;2023-10-13T10:05:42;56.6;43.8;24.6
74430;PMS7003;62863;52.062;23.764;2023-10-13T10:10:43;22;19.4;13.6
74430;PMS7003;62863;52.062;23.764;2023-10-13T10:15:36;18.4;16;10.4
74430;PMS7003;62863;52.062;23.764;2023-10-13T10:21:03;21.4;16.6;11.2
74430;PMS7003;62863;52.062;23.764;2023-10-13T10:26:12;14.2;10.8;7.8
74430;PMS7003;62863;52.062;23.764;2023-10-13T10:30:42;12.6;11.2;8.4
74430;PMS7003;62863;52.062;23.764;2023-10-13T10:36:00;10.4;8;5.8
74430;PMS7003;62863;52.062;23.764;2023-10-13T10:40:47;14.6;10.4;6.8
74430;PMS7003;62863;52.062;23.764;2023-10-13T10:45:36;10.6;8.4;5.2
74430;PMS7003;62863;52.062;23.764;2023-10-13T10:51:13;9.6;8.2;5.2
74430;PMS7003;62863;52.062;23.764;2023-10-13T10:55:36;7.8;6;4.4
74430;PMS7003;62863;52.062;23.764;2023-10-13T11:00:42;12;9.8;6.3
74430;PMS7003;62863;52.062;23.764;2023-10-13T11:06:14;30;24.6;15.6
74430;PMS7003;62863;52.062;23.764;2023-10-13T11:10:52;17.8;14;9.2
74430;PMS7003;62863;52.062;23.764;2023-10-13T11:16:18;9.2;7.4;5.4
74430;PMS7003;62863;52.062;23.764;2023-10-13T11:21:14;9.4;7;4.6
74430;PMS7003;62863;52.062;23.764;2023-10-13T11:26:00;8.4;6.4;4.4
74430;PMS7003;62863;52.062;23.764;2023-10-13T11:31:00;13.4;11.4;8
74430;PMS7003;62863;52.062;23.764;2023-10-13T11:35:37;16.4;13;8.2
74430;PMS7003;62863;52.062;23.764;2023-10-13T11:41:01;15.4;13;8.4
74430;PMS7003;62863;52.062;23.764;2023-10-13T11:45:36;23.4;18.6;12.4
74430;PMS7003;62863;52.062;23.764;2023-10-13T11:50:42;28.2;23.6;15.4
74430;PMS7003;62863;52.062;23.764;2023-10-13T11:56:12;20.6;18.8;12.4
74430;PMS7003;62863;52.062;23.764;2023-10-13T12:00:42;9.5;8.3;5.8
74430;PMS7003;62863;52.062;23.764;2023-10-13T12:06:14;19;15.2;9.6
74430;PMS7003;62863;52.062;23.764;2023-10-13T12:11:10;47.8;36.2;21.2
74430;PMS7003;62863;52.062;23.764;2023-10-13T12:16:00;40.4;30;18
74430;PMS7003;62863;52.062;23.764;2023-10-13T12:20:46;19.2;13.8;9.8
74430;PMS7003;62863;52.062;23.764;2023-10-13T12:26:02;18.6;16.2;10
74430;PMS7003;62863;52.062;23.764;2023-10-13T12:30:46;15.8;12.2;8.2
74430;PMS7003;62863;52.062;23.764;2023-10-13T12:35:38;24;19.8;13.4
74430;PMS7003;62863;52.062;23.764;2023-10-13T12:40:36;13.4;11.8;7.4
74430;PMS7003;62863;52.062;23.764;2023-10-13T12:46:14;10;7.8;5.6
74430;PMS7003;62863;52.062;23.764;2023-10-13T12:50:54;16;11.8;7.8
74430;PMS7003;62863;52.062;23.764;2023-10-13T12:56:12;10.2;8.8;6.2
74430;PMS7003;62863;52.062;23.764;2023-10-13T13:01:00;10.3;8.5;6.3
74430;PMS7003;62863;52.062;23.764;2023-10-13T13:05:38;12;10.4;7.4
74430;PMS7003;62863;52.062;23.764;2023-10-13T13:11:00;8.2;7.2;5.6
74430;PMS7003;62863;52.062;23.764;2023-10-13T13:15:48;11.2;9.4;6.6
74430;PMS7003;62863;52.062;23.764;2023-10-13T13:21:00;11.6;10.2;7.6
74430;PMS7003;62863;52.062;23.764;2023-10-13T13:25:54;10.6;8.6;6.2
74430;PMS7003;62863;52.062;23.764;2023-10-13T13:30:36;16;14;10.2
74430;PMS7003;62863;52.062;23.764;2023-10-13T13:36:14;14;10;7.2
74430;PMS7003;62863;52.062;23.764;2023-10-13T13:40:54;12.4;11.4;8
74430;PMS7003;62863;52.062;23.764;2023-10-13T13:46:15;11.6;10.4;7.4
74430;PMS7003;62863;52.062;23.764;2023-10-13T13:51:14;13.6;11;8.4
74430;PMS7003;62863;52.062;23.764;2023-10-13T13:56:01;10.8;8.6;6.4
74430;PMS7003;62863;52.062;23.764;2023-10-13T14:01:00;16.2;13.6;9
74430;PMS7003;62863;52.062;23.764;2023-10-13T14:05:48;15;12;8.3
74430;PMS7003;62863;52.062;23.764;2023-10-13T14:10:50;15.8;13.6;9.6
74430;PMS7003;62863;52.062;23.764;2023-10-13T14:15:46;16.6;15.4;10.6
74430;PMS7003;62863;52.062;23.764;2023-10-13T14:20:36;32.8;26.4;16.6
74430;PMS7003;62863;52.062;23.764;2023-10-13T14:26:13;24.8;21.6;13.6
74430;PMS7003;62863;52.062;23.764;2023-10-13T14:30:54;15.4;13.6;9
74430;PMS7003;62863;52.062;23.764;2023-10-13T14:36:12;30.4;25.4;15.4
74430;PMS7003;62863;52.062;23.764;2023-10-13T14:41:12;28.4;23.2;14
74430;PMS7003;62863;52.062;23.764;2023-10-13T14:45:52;13.2;12.2;9
74430;PMS7003;62863;52.062;23.764;2023-10-13T14:51:00;12.8;10.6;7.8
74430;PMS7003;62863;52.062;23.764;2023-10-13T14:55:36;14.4;11.2;7.8
74430;PMS7003;62863;52.062;23.764;2023-10-13T15:01:00;14.2;12;9.2
74430;PMS7003;62863;52.062;23.764;2023-10-13T15:05:37;13.3;11.3;8.5
74430;PMS7003;62863;52.062;23.764;2023-10-13T15:10:42;16;13;9.2
74430;PMS7003;62863;52.062;23.764;2023-10-13T15:16:13;17.6;15.2;10.6
74430;PMS7003;62863;52.062;23.764;2023-10-13T15:20:52;18;14.8;9.6
74430;PMS7003;62863;52.062;23.764;2023-10-13T15:26:12;18.2;14;9.4
74430;PMS7003;62863;52.062;23.764;2023-10-13T15:31:10;16;14.4;9.2
74430;PMS7003;62863;52.062;23.764;2023-10-13T15:35:52;17.4;15.4;10.8
74430;PMS7003;62863;52.062;23.764;2023-10-13T15:41:00;18.8;16.4;11.8
74430;PMS7003;62863;52.062;23.764;2023-10-13T15:45:48;22.4;20.4;13.8
74430;PMS7003;62863;52.062;23.764;2023-10-13T15:50:58;25.4;20.8;14.8
74430;PMS7003;62863;52.062;23.764;2023-10-13T15:55:52;24.4;21.4;14.4
74430;PMS7003;62863;52.062;23.764;2023-10-13T16:00:42;22.4;18.6;12.8
74430;PMS7003;62863;52.062;23.764;2023-10-13T16:06:10;22.5;19.3;12.8
74430;PMS7003;62863;52.062;23.764;2023-10-13T16:10:46;21;17;12
74430;PMS7003;62863;52.062;23.764;2023-10-13T16:16:14;15.4;13.6;9.8
74430;PMS7003;62863;52.062;23.764;2023-10-13T16:21:14;19.8;16.8;12
74430;PMS7003;62863;52.062;23.764;2023-10-13T16:25:50;20.8;17.8;12
74430;PMS7003;62863;52.062;23.764;2023-10-13T16:31:00;27;21;14.8
74430;PMS7003;62863;52.062;23.764;2023-10-13T16:35:36;21;17.8;13.4
74430;PMS7003;62863;52.062;23.764;2023-10-13T16:41:00;20.6;17.2;13.2
74430;PMS7003;62863;52.062;23.764;2023-10-13T16:45:48;21.2;18;13
74430;PMS7003;62863;52.062;23.764;2023-10-13T16:50:42;18.6;16;10.4
74430;PMS7003;62863;52.062;23.764;2023-10-13T16:56:16;18.2;16.8;11.2
74430;PMS7003;62863;52.062;23.764;2023-10-13T17:00:48;16.6;15;11.8
74430;PMS7003;62863;52.062;23.764;2023-10-13T17:06:16;26.8;24.3;17
74430;PMS7003;62863;52.062;23.764;2023-10-13T17:11:13;21.8;19.2;13.2
74430;PMS7003;62863;52.062;23.764;2023-10-13T17:15:38;38.2;32.8;21.2
74430;PMS7003;62863;52.062;23.764;2023-10-13T17:21:02;31;27.2;19
74430;PMS7003;62863;52.062;23.764;2023-10-13T17:25:46;24.4;22.2;15.6
74430;PMS7003;62863;52.062;23.764;2023-10-13T17:31:02;21.8;19.4;14.2
74430;PMS7003;62863;52.062;23.764;2023-10-13T17:35:43;20;18.6;12.6
74430;PMS7003;62863;52.062;23.764;2023-10-13T17:40:42;20;18.6;13.8
74430;PMS7003;62863;52.062;23.764;2023-10-13T17:46:13;44;35.4;23.6
74430;PMS7003;62863;52.062;23.764;2023-10-13T17:50:36;30;27.4;19.4
74430;PMS7003;62863;52.062;23.764;2023-10-13T17:56:13;19.4;18.2;12.2
74430;PMS7003;62863;52.062;23.764;2023-10-13T18:01:17;18.6;16.6;11.6
74430;PMS7003;62863;52.062;23.764;2023-10-13T18:06:02;18;16.5;12.3
74430;PMS7003;62863;52.062;23.764;2023-10-13T18:10:51;19;16.8;12.4
74430;PMS7003;62863;52.062;23.764;2023-10-13T18:15:36;18.4;16.2;12.4
74430;PMS7003;62863;52.062;23.764;2023-10-13T18:21:02;18.4;17.2;12.8
74430;PMS7003;62863;52.062;23.764;2023-10-13T18:25:52;17.8;15;11
74430;PMS7003;62863;52.062;23.764;2023-10-13T18:30:36;18.8;17;12.8
74430;PMS7003;62863;52.062;23.764;2023-10-13T18:36:15;75;62.4;35.8
74430;PMS7003;62863;52.062;23.764;2023-10-13T18:40:55;122;105.6;60
74430;PMS7003;62863;52.062;23.764;2023-10-13T18:46:14;105.2;90.2;51.6
74430;PMS7003;62863;52.062;23.764;2023-10-13T18:51:15;52.8;43.8;27
74430;PMS7003;62863;52.062;23.764;2023-10-13T18:56:04;38.8;33.2;23.6
74430;PMS7003;62863;52.062;23.764;2023-10-13T19:00:44;29;26.2;19.6
74430;PMS7003;62863;52.062;23.764;2023-10-13T19:05:36;24.8;24.4;18
74430;PMS7003;62863;52.062;23.764;2023-10-13T19:11:02;17.8;16.8;10.5
74430;PMS7003;62863;52.062;23.764;2023-10-13T19:15:36;17.2;16.4;11.2
74430;PMS7003;62863;52.062;23.764;2023-10-13T19:20:43;18.8;16;11
74430;PMS7003;62863;52.062;23.764;2023-10-13T19:26:15;18;15.2;10.6
74430;PMS7003;62863;52.062;23.764;2023-10-13T19:30:38;15.2;13;9.8
74430;PMS7003;62863;52.062;23.764;2023-10-13T19:36:13;18.6;15;10
74430;PMS7003;62863;52.062;23.764;2023-10-13T19:41:13;15.2;13.4;9.8
74430;PMS7003;62863;52.062;23.764;2023-10-13T19:46:04;32.4;27.8;17.8
74430;PMS7003;62863;52.062;23.764;2023-10-13T19:51:02;34.4;27.4;19
74430;PMS7003;62863;52.062;23.764;2023-10-13T19:55:49;23;20.2;14.6
74430;PMS7003;62863;52.062;23.764;2023-10-13T20:00:36;20.2;17.8;13.4
74430;PMS7003;62863;52.062;23.764;2023-10-13T20:05:36;20;18.4;13.2
74430;PMS7003;62863;52.062;23.764;2023-10-13T20:11:17;19.8;16.8;11.5
74430;PMS7003;62863;52.062;23.764;2023-10-13T20:16:06;16.2;15.6;11.6
74430;PMS7003;62863;52.062;23.764;2023-10-13T20:20:36;15.4;14;9.8
74430;PMS7003;62863;52.062;23.764;2023-10-13T20:26:12;16.4;14.4;9
74430;PMS7003;62863;52.062;23.764;2023-10-13T20:31:04;18.6;15.8;10.4
74430;PMS7003;62863;52.062;23.764;2023-10-13T20:36:14;16.6;14.4;10
74430;PMS7003;62863;52.062;23.764;2023-10-13T20:41:04;18.6;16.8;11
74430;PMS7003;62863;52.062;23.764;2023-10-13T20:45:48;17;14.4;10
74430;PMS7003;62863;52.062;23.764;2023-10-13T20:50:36;16.6;15.4;10.6
74430;PMS7003;62863;52.062;23.764;2023-10-13T20:55:42;17.2;14.2;9.6
74430;PMS7003;62863;52.062;23.764;2023-10-13T21:00:48;18.2;16;10.2
74430;PMS7003;62863;52.062;23.764;2023-10-13T21:05:54;20.2;17.6;12.4
74430;PMS7003;62863;52.062;23.764;2023-10-13T21:10:54;19;17.5;12.8
74430;PMS7003;62863;52.062;23.764;2023-10-13T21:16:15;18.2;17;13.2
74430;PMS7003;62863;52.062;23.764;2023-10-13T21:20:39;19.4;17.2;10.8
74430;PMS7003;62863;52.062;23.764;2023-10-13T21:26:17;18;16.8;12.4
74430;PMS7003;62863;52.062;23.764;2023-10-13T21:31:15;17.2;16.2;11.6
74430;PMS7003;62863;52.062;23.764;2023-10-13T21:35:40;16.2;15.2;11.6
74430;PMS7003;62863;52.062;23.764;2023-10-13T21:41:03;17;15.8;11.8
74430;PMS7003;62863;52.062;23.764;2023-10-13T21:45:42;19.4;18.4;13.4
74430;PMS7003;62863;52.062;23.764;2023-10-13T21:50:42;20.8;17.4;12.2
74430;PMS7003;62863;52.062;23.764;2023-10-13T21:56:11;19.6;16.8;12.8
74430;PMS7003;62863;52.062;23.764;2023-10-13T22:00:48;18.6;16.8;12.6
74430;PMS7003;62863;52.062;23.764;2023-10-13T22:06:15;22.2;18.2;13.4
74430;PMS7003;62863;52.062;23.764;2023-10-13T22:10:57;20.3;19.8;13.8
74430;PMS7003;62863;52.062;23.764;2023-10-13T22:16:12;20.6;18.6;13.8
74430;PMS7003;62863;52.062;23.764;2023-10-13T22:21:13;18.2;17.6;12.8
74430;PMS7003;62863;52.062;23.764;2023-10-13T22:25:43;19.8;17.8;12.4
74430;PMS7003;62863;52.062;23.764;2023-10-13T22:30:37;20.2;18;12.6
74430;PMS7003;62863;52.062;23.764;2023-10-13T22:35:37;21.4;18;12.8
74430;PMS7003;62863;52.062;23.764;2023-10-13T22:40:37;21.4;18.4;13.8
74430;PMS7003;62863;52.062;23.764;2023-10-13T22:46:09;19.8;18.6;13.8
74430;PMS7003;62863;52.062;23.764;2023-10-13T22:50:43;22;18.2;13.8
74430;PMS7003;62863;52.062;23.764;2023-10-13T22:56:15;27.2;23.8;17.2
74430;PMS7003;62863;52.062;23.764;2023-10-13T23:01:07;33.6;28.6;20.2
74430;PMS7003;62863;52.062;23.764;2023-10-13T23:06:17;24;20.8;15.6
74430;PMS7003;62863;52.062;23.764;2023-10-13T23:11:13;20;18.5;13.8
74430;PMS7003;62863;52.062;23.764;2023-10-13T23:15:43;22.2;19.4;15.4
74430;PMS7003;62863;52.062;23.764;2023-10-13T23:20:49;19;17.2;13.2
74430;PMS7003;62863;52.062;23.764;2023-10-13T23:25:49;23;20;13.4
74430;PMS7003;62863;52.062;23.764;2023-10-13T23:30:43;20.6;19;14.4
74430;PMS7003;62863;52.062;23.764;2023-10-13T23:36:07;21;18.2;12.6
74430;PMS7003;62863;52.062;23.764;2023-10-13T23:40:53;20.2;18.2;14.6
74430;PMS7003;62863;52.062;23.764;2023-10-13T23:46:15;22.6;20.6;15.4
74430;PMS7003;62863;52.062;23.764;2023-10-13T23:51:09;18.8;17.8;13.8
74430;PMS7003;62863;52.062;23.764;2023-10-13T23:56:17;19.8;18.2;14.4
